Time;durP1;ratioP1;P1;durP2;ratioP2;P2;SDS_P1;SDS_P2;PMS_P1;PMS_P2;Temp;Humidity;BMP_temperature;BMP_pressure;BME280_temperature;BME280_humidity;BME280_pressure;Samples;Min_cycle;Max_cycle;Signal;HPM_P1;HPM_P2
2022/11/11 00:01:37;;;;;;;12.40;3.10;;;;;;;;;;5051470;28;20021;-69
2022/11/11 00:04:02;;;;;;;7.53;2.92;;;;;;;;;;5046964;28;20079;-68
2022/11/11 00:06:27;;;;;;;6.75;3.03;;;;;;;;;;5052190;28;20024;-67
2022/11/11 00:08:52;;;;;;;10.02;3.97;;;;;;;;;;5051641;28;20064;-67
2022/11/11 00:11:18;;;;;;;12.20;3.63;;;;;;;;;;5052268;28;20028;-67
2022/11/11 00:13:43;;;;;;;10.25;3.78;;;;;;;;;;5052211;28;20263;-67
2022/11/11 00:16:10;;;;;;;6.90;3.38;;;;;;;;;;5051525;28;20017;-67
2022/11/11 00:26:47;;;;;;;7.43;3.70;;;;;;;;;;5051834;28;20266;-68
2022/11/11 00:29:12;;;;;;;11.60;3.60;;;;;;;;;;5051619;28;20013;-68
2022/11/11 00:32:21;;;;;;;7.13;3.38;;;;;;;;;;5050575;28;20093;-68
2022/11/11 00:34:23;;;;;;;14.73;4.10;;;;;;;;;;5051693;28;20570;-68
2022/11/11 00:36:48;;;;;;;6.88;3.83;;;;;;;;;;5052441;28;20182;-68
2022/11/11 00:39:13;;;;;;;7.85;4.03;;;;;;;;;;5051044;28;20025;-68
2022/11/11 00:41:38;;;;;;;6.07;3.47;;;;;;;;;;5051020;28;20163;-68
2022/11/11 00:44:04;;;;;;;10.07;4.38;;;;;;;;;;5052504;28;20356;-68
2022/11/11 00:51:57;;;;;;;8.47;3.03;;;;;;;;;;5039965;28;20033;-68
2022/11/11 00:54:22;;;;;;;8.38;2.97;;;;;;;;;;5048896;28;20279;-69
2022/11/11 00:56:47;;;;;;;6.75;3.45;;;;;;;;;;5044229;28;20026;-69
2022/11/11 00:59:12;;;;;;;10.77;3.70;;;;;;;;;;5029285;28;20022;-69
2022/11/11 01:01:38;;;;;;;10.87;4.47;;;;;;;;;;5034038;28;20283;-68
2022/11/11 01:04:03;;;;;;;18.10;5.15;;;;;;;;;;5043686;28;20274;-67
2022/11/11 01:06:29;;;;;;;10.57;4.45;;;;;;;;;;5035822;28;20071;-67
2022/11/11 01:08:54;;;;;;;14.90;4.95;;;;;;;;;;5052621;28;20017;-68
2022/11/11 01:11:21;;;;;;;8.60;4.90;;;;;;;;;;5055919;28;20025;-68
2022/11/11 01:13:46;;;;;;;10.65;4.60;;;;;;;;;;5055604;28;20017;-68
2022/11/11 01:16:12;;;;;;;10.27;5.10;;;;;;;;;;5055279;28;20013;-68
2022/11/11 01:18:38;;;;;;;14.07;5.22;;;;;;;;;;5030424;28;20797;-68
2022/11/11 01:21:05;;;;;;;11.98;4.63;;;;;;;;;;5020809;28;20028;-68
2022/11/11 01:23:31;;;;;;;16.98;5.47;;;;;;;;;;5050511;28;20092;-67
2022/11/11 01:26:06;;;;;;;8.95;4.35;;;;;;;;;;5042027;28;20106;-67
2022/11/11 01:28:32;;;;;;;8.55;4.68;;;;;;;;;;5054777;28;20040;-67
2022/11/11 01:31:01;;;;;;;9.70;5.07;;;;;;;;;;5055786;28;20040;-67
2022/11/11 01:33:26;;;;;;;11.95;5.30;;;;;;;;;;5054909;28;20017;-67
2022/11/11 01:35:52;;;;;;;7.85;4.75;;;;;;;;;;5044764;28;20533;-67
2022/11/11 01:38:17;;;;;;;8.03;5.10;;;;;;;;;;5055352;28;20409;-67
2022/11/11 01:40:43;;;;;;;8.70;5.13;;;;;;;;;;5054712;28;20629;-68
2022/11/11 01:43:11;;;;;;;9.48;4.20;;;;;;;;;;5050464;28;20316;-70
2022/11/11 01:45:48;;;;;;;13.15;5.43;;;;;;;;;;5053464;28;20060;-68
2022/11/11 01:51:23;;;;;;;15.20;4.82;;;;;;;;;;5046466;28;20059;-68
2022/11/11 01:53:51;;;;;;;10.85;4.97;;;;;;;;;;5041225;28;20459;-68
2022/11/11 01:56:16;;;;;;;9.00;5.78;;;;;;;;;;5050380;28;20028;-68
2022/11/11 01:58:42;;;;;;;10.05;5.55;;;;;;;;;;5054064;28;20017;-68
2022/11/11 02:01:07;;;;;;;10.35;5.70;;;;;;;;;;5055043;28;20028;-69
2022/11/11 02:03:37;;;;;;;11.15;5.82;;;;;;;;;;5050324;28;20458;-69
2022/11/11 02:06:02;;;;;;;18.83;5.93;;;;;;;;;;5042888;28;20104;-69
2022/11/11 02:08:32;;;;;;;8.43;5.40;;;;;;;;;;5054353;28;20162;-68
2022/11/11 02:11:12;;;;;;;10.88;5.70;;;;;;;;;;5055159;28;20033;-67
2022/11/11 02:16:22;;;;;;;7.82;5.22;;;;;;;;;;5036064;28;20091;-67
2022/11/11 02:18:48;;;;;;;13.23;6.85;;;;;;;;;;5054207;28;20025;-67
2022/11/11 02:21:16;;;;;;;14.73;6.70;;;;;;;;;;5053849;28;20021;-68
2022/11/11 02:24:02;;;;;;;14.43;6.25;;;;;;;;;;5040991;28;20469;-68
2022/11/11 02:26:29;;;;;;;10.40;6.28;;;;;;;;;;5053116;28;20032;-68
2022/11/11 02:28:55;;;;;;;13.05;6.47;;;;;;;;;;5052924;28;20048;-68
2022/11/11 02:31:25;;;;;;;10.70;6.00;;;;;;;;;;5041679;28;20187;-68
2022/11/11 02:33:50;;;;;;;10.38;6.72;;;;;;;;;;5049835;28;20458;-69
2022/11/11 02:36:16;;;;;;;9.40;6.03;;;;;;;;;;5043197;28;20021;-68
2022/11/11 02:38:41;;;;;;;10.13;5.88;;;;;;;;;;5053377;28;20036;-68
2022/11/11 02:43:50;;;;;;;10.25;6.45;;;;;;;;;;5050747;28;20524;-70
2022/11/11 02:46:15;;;;;;;9.60;6.07;;;;;;;;;;5053041;28;20021;-68
2022/11/11 02:48:41;;;;;;;8.43;6.25;;;;;;;;;;5054338;28;20386;-68
2022/11/11 02:51:07;;;;;;;12.57;6.60;;;;;;;;;;5053868;28;20115;-69
2022/11/11 02:53:32;;;;;;;11.45;5.78;;;;;;;;;;5044511;28;20083;-69
2022/11/11 02:55:58;;;;;;;13.45;5.63;;;;;;;;;;5052032;28;20017;-69
2022/11/11 02:58:23;;;;;;;12.27;6.10;;;;;;;;;;5054399;28;20090;-69
2022/11/11 03:00:48;;;;;;;15.02;6.68;;;;;;;;;;5046789;28;20025;-68
2022/11/11 03:03:13;;;;;;;13.57;5.90;;;;;;;;;;5053319;28;20451;-68
2022/11/11 03:05:39;;;;;;;12.03;5.27;;;;;;;;;;5048235;28;20422;-69
2022/11/11 03:08:04;;;;;;;9.53;5.23;;;;;;;;;;5053120;28;20734;-68
2022/11/11 03:10:29;;;;;;;8.73;5.50;;;;;;;;;;5053637;28;20837;-68
2022/11/11 03:12:55;;;;;;;10.43;6.15;;;;;;;;;;5044697;28;20024;-68
2022/11/11 03:15:20;;;;;;;11.82;5.28;;;;;;;;;;5052863;28;20536;-68
2022/11/11 03:17:45;;;;;;;8.45;5.47;;;;;;;;;;5053359;28;20025;-68
2022/11/11 03:22:58;;;;;;;10.82;5.70;;;;;;;;;;5047458;28;20043;-68
2022/11/11 03:25:38;;;;;;;9.70;4.88;;;;;;;;;;5052758;28;20506;-68
2022/11/11 03:28:08;;;;;;;7.85;4.90;;;;;;;;;;5045853;28;20028;-68
2022/11/11 03:30:33;;;;;;;8.15;5.35;;;;;;;;;;5052553;28;20053;-68
2022/11/11 03:32:59;;;;;;;11.57;5.63;;;;;;;;;;5053079;28;20067;-69
2022/11/11 03:35:24;;;;;;;9.60;5.13;;;;;;;;;;5053064;28;20375;-69
2022/11/11 03:40:33;;;;;;;9.47;5.57;;;;;;;;;;5050533;28;20127;-67
2022/11/11 03:42:59;;;;;;;15.75;5.00;;;;;;;;;;5051493;28;20033;-67
2022/11/11 03:45:24;;;;;;;8.30;5.25;;;;;;;;;;5051204;28;20048;-67
2022/11/11 03:47:49;;;;;;;10.07;5.43;;;;;;;;;;5049979;28;20009;-68
2022/11/11 03:50:14;;;;;;;14.75;5.93;;;;;;;;;;5047720;28;20298;-67
2022/11/11 03:52:41;;;;;;;10.60;6.03;;;;;;;;;;5047278;28;20017;-68
2022/11/11 03:55:06;;;;;;;10.07;5.70;;;;;;;;;;5044646;28;20021;-67
2022/11/11 03:57:31;;;;;;;10.20;5.38;;;;;;;;;;5038389;28;20017;-68
2022/11/11 03:59:57;;;;;;;12.70;6.35;;;;;;;;;;5042199;28;20017;-68
2022/11/11 04:10:34;;;;;;;15.15;6.45;;;;;;;;;;5053224;28;20297;-69
2022/11/11 04:23:55;;;;;;;10.17;6.17;;;;;;;;;;5039736;28;20489;-69
2022/11/11 04:26:20;;;;;;;13.52;6.57;;;;;;;;;;5039903;28;20276;-69
2022/11/11 04:31:30;;;;;;;14.15;6.50;;;;;;;;;;5039674;28;20040;-68
2022/11/11 04:33:55;;;;;;;10.35;6.05;;;;;;;;;;5051766;28;20018;-68
2022/11/11 04:36:20;;;;;;;13.23;6.13;;;;;;;;;;5051898;28;20040;-68
2022/11/11 04:41:29;;;;;;;11.30;5.50;;;;;;;;;;5052415;28;20126;-69
2022/11/11 04:46:38;;;;;;;9.30;5.22;;;;;;;;;;5050582;28;20044;-68
2022/11/11 04:49:03;;;;;;;7.97;5.33;;;;;;;;;;5051941;28;20013;-68
2022/11/11 04:52:25;;;;;;;10.30;5.43;;;;;;;;;;5052592;28;20260;-68
2022/11/11 04:54:14;;;;;;;8.70;4.97;;;;;;;;;;5049636;28;20043;-68
2022/11/11 04:56:49;;;;;;;13.07;6.03;;;;;;;;;;5050057;28;20021;-69
2022/11/11 04:59:18;;;;;;;8.35;5.70;;;;;;;;;;5052077;28;20271;-69
2022/11/11 05:04:28;;;;;;;11.15;5.90;;;;;;;;;;5035312;28;20032;-69
2022/11/11 05:09:37;;;;;;;9.90;5.33;;;;;;;;;;5046746;28;20051;-69
2022/11/11 05:12:02;;;;;;;14.77;5.03;;;;;;;;;;5051963;28;20464;-69
2022/11/11 05:22:40;;;;;;;9.10;5.22;;;;;;;;;;5041553;28;20048;-68
2022/11/11 05:25:24;;;;;;;11.57;4.38;;;;;;;;;;5049731;28;20029;-67
2022/11/11 05:27:50;;;;;;;8.98;4.70;;;;;;;;;;5041643;28;20029;-68
2022/11/11 05:30:15;;;;;;;9.63;5.20;;;;;;;;;;5036686;28;20120;-68
2022/11/11 05:32:41;;;;;;;12.73;5.72;;;;;;;;;;5051220;28;20055;-68
2022/11/11 05:35:07;;;;;;;7.55;4.75;;;;;;;;;;5051734;28;20021;-67
2022/11/11 05:37:32;;;;;;;7.15;4.85;;;;;;;;;;5050367;28;20017;-68
2022/11/11 05:39:57;;;;;;;6.43;4.18;;;;;;;;;;5051628;28;20019;-67
2022/11/11 05:42:23;;;;;;;10.15;4.47;;;;;;;;;;5050037;28;20159;-67
2022/11/11 05:44:48;;;;;;;7.88;4.32;;;;;;;;;;5050506;28;20044;-68
2022/11/11 05:47:13;;;;;;;11.18;4.82;;;;;;;;;;5051422;28;20017;-68
2022/11/11 05:49:39;;;;;;;15.13;4.43;;;;;;;;;;5051346;28;20119;-68
2022/11/11 05:52:04;;;;;;;6.70;4.23;;;;;;;;;;5037521;28;20025;-68
2022/11/11 05:54:30;;;;;;;11.50;4.85;;;;;;;;;;5039844;28;20275;-69
2022/11/11 05:56:55;;;;;;;12.52;5.22;;;;;;;;;;5053807;28;20363;-68
2022/11/11 05:59:20;;;;;;;10.65;4.82;;;;;;;;;;5055132;28;20017;-68
2022/11/11 06:01:45;;;;;;;6.82;4.38;;;;;;;;;;5048279;28;20044;-69
2022/11/11 06:04:11;;;;;;;7.47;4.45;;;;;;;;;;5050965;28;20520;-69
2022/11/11 06:06:36;;;;;;;9.25;4.65;;;;;;;;;;5048965;28;20043;-70
2022/11/11 06:09:02;;;;;;;6.43;4.15;;;;;;;;;;5054652;28;20070;-68
2022/11/11 06:11:28;;;;;;;7.18;4.32;;;;;;;;;;5052119;28;20013;-68
2022/11/11 06:13:54;;;;;;;7.57;4.35;;;;;;;;;;5041987;28;20044;-69
2022/11/11 06:16:19;;;;;;;9.05;4.28;;;;;;;;;;5054824;28;20360;-68
2022/11/11 06:18:45;;;;;;;8.98;3.75;;;;;;;;;;5044983;28;20036;-68
2022/11/11 06:21:10;;;;;;;8.13;3.65;;;;;;;;;;5042049;28;20537;-67
2022/11/11 06:23:35;;;;;;;10.52;4.03;;;;;;;;;;5052139;28;20017;-68
2022/11/11 06:26:12;;;;;;;5.43;3.58;;;;;;;;;;5051848;28;20070;-69
2022/11/11 06:28:45;;;;;;;14.50;4.28;;;;;;;;;;5049429;28;20142;-68
2022/11/11 06:31:12;;;;;;;7.70;3.88;;;;;;;;;;5050827;28;20033;-68
2022/11/11 06:33:37;;;;;;;6.32;2.72;;;;;;;;;;5053787;28;20041;-68
2022/11/11 06:36:03;;;;;;;9.15;3.88;;;;;;;;;;5052574;28;20062;-68
2022/11/11 06:38:28;;;;;;;8.35;2.95;;;;;;;;;;5054109;28;20021;-68
2022/11/11 06:40:54;;;;;;;5.65;3.80;;;;;;;;;;5051159;28;20031;-67
2022/11/11 06:43:19;;;;;;;9.43;3.80;;;;;;;;;;5051254;28;20029;-70
2022/11/11 06:45:44;;;;;;;5.53;3.47;;;;;;;;;;5038507;28;20033;-71
2022/11/11 06:48:10;;;;;;;7.35;3.67;;;;;;;;;;5033063;28;20029;-67
2022/11/11 06:50:35;;;;;;;5.68;3.40;;;;;;;;;;5050140;28;20021;-67
2022/11/11 06:53:11;;;;;;;5.30;3.03;;;;;;;;;;5053140;28;20483;-68
2022/11/11 06:55:36;;;;;;;11.30;3.63;;;;;;;;;;5046401;28;20025;-67
2022/11/11 06:58:05;;;;;;;7.30;3.08;;;;;;;;;;5038558;28;20075;-67
2022/11/11 07:00:31;;;;;;;6.22;3.30;;;;;;;;;;5039062;28;20017;-67
2022/11/11 07:02:56;;;;;;;7.20;3.50;;;;;;;;;;5041612;28;20373;-68
2022/11/11 07:05:22;;;;;;;7.32;3.10;;;;;;;;;;5041380;28;20024;-67
2022/11/11 07:07:47;;;;;;;5.22;3.08;;;;;;;;;;5024319;28;20021;-67
2022/11/11 07:10:13;;;;;;;6.37;3.27;;;;;;;;;;5053237;28;20021;-67
2022/11/11 07:12:41;;;;;;;6.07;3.40;;;;;;;;;;5040337;28;20310;-67
2022/11/11 07:15:07;;;;;;;8.77;3.85;;;;;;;;;;5048912;28;20371;-68
2022/11/11 07:17:32;;;;;;;6.60;2.85;;;;;;;;;;5053232;28;20025;-70
2022/11/11 07:19:57;;;;;;;5.57;3.30;;;;;;;;;;5051961;28;20088;-67
2022/11/11 07:22:22;;;;;;;8.05;3.50;;;;;;;;;;5047420;28;20056;-67
2022/11/11 07:24:47;;;;;;;6.55;3.65;;;;;;;;;;5035964;28;20024;-68
2022/11/11 07:27:13;;;;;;;9.40;3.47;;;;;;;;;;5050444;28;20032;-67
2022/11/11 07:29:38;;;;;;;6.57;3.40;;;;;;;;;;5046009;28;20041;-67
2022/11/11 07:32:03;;;;;;;5.03;3.03;;;;;;;;;;5034679;28;20049;-67
2022/11/11 07:34:28;;;;;;;7.93;3.47;;;;;;;;;;5039358;28;20037;-67
2022/11/11 07:36:54;;;;;;;9.45;3.80;;;;;;;;;;5051933;28;20522;-67
2022/11/11 07:39:19;;;;;;;9.82;4.03;;;;;;;;;;5051398;28;20558;-67
2022/11/11 07:41:44;;;;;;;4.55;3.00;;;;;;;;;;5049680;28;20387;-67
2022/11/11 07:44:09;;;;;;;5.73;3.57;;;;;;;;;;5052928;28;20044;-67
2022/11/11 07:46:34;;;;;;;9.83;4.23;;;;;;;;;;5052861;28;20660;-67
2022/11/11 07:49:00;;;;;;;5.55;3.50;;;;;;;;;;5050148;28;20756;-67
2022/11/11 07:51:25;;;;;;;4.93;3.20;;;;;;;;;;5047180;28;20394;-67
2022/11/11 07:53:50;;;;;;;6.47;3.63;;;;;;;;;;5039584;28;20020;-67
2022/11/11 07:56:15;;;;;;;6.23;3.60;;;;;;;;;;5048145;28;20023;-67
2022/11/11 07:58:40;;;;;;;11.23;3.90;;;;;;;;;;5050291;28;20267;-67
2022/11/11 08:01:06;;;;;;;6.03;3.27;;;;;;;;;;5040537;28;20057;-67
2022/11/11 08:03:31;;;;;;;7.55;3.50;;;;;;;;;;5042694;28;20721;-67
2022/11/11 08:05:56;;;;;;;4.53;3.00;;;;;;;;;;5042707;28;20014;-70
2022/11/11 08:08:25;;;;;;;8.73;3.00;;;;;;;;;;5044797;28;20275;-70
2022/11/11 08:10:53;;;;;;;8.98;3.40;;;;;;;;;;5041298;28;20083;-68
2022/11/11 08:16:05;;;;;;;6.00;2.75;;;;;;;;;;5051688;28;20078;-68
2022/11/11 08:18:30;;;;;;;6.35;2.50;;;;;;;;;;5050959;28;20021;-68
2022/11/11 08:20:57;;;;;;;9.30;2.67;;;;;;;;;;5043895;28;20072;-68
2022/11/11 08:23:31;;;;;;;3.92;2.20;;;;;;;;;;5043897;28;20027;-68
2022/11/11 08:25:56;;;;;;;;;;;;;;;;;;5050981;28;20031;-68
2022/11/11 08:28:21;;;;;;;4.68;1.75;;;;;;;;;;5037402;28;19904;-68
2022/11/11 08:30:47;;;;;;;4.97;2.00;;;;;;;;;;5048173;28;20116;-68
2022/11/11 08:33:13;;;;;;;4.18;1.95;;;;;;;;;;5050068;28;20044;-68
2022/11/11 08:35:38;;;;;;;5.25;2.00;;;;;;;;;;5050785;28;20052;-68
2022/11/11 08:38:03;;;;;;;5.88;2.10;;;;;;;;;;5041608;28;20024;-68
2022/11/11 08:40:28;;;;;;;3.67;1.80;;;;;;;;;;5052162;28;20079;-67
2022/11/11 08:42:57;;;;;;;4.90;2.47;;;;;;;;;;5048570;28;20074;-68
2022/11/11 08:45:23;;;;;;;7.43;2.20;;;;;;;;;;5050951;28;20028;-68
2022/11/11 08:47:48;;;;;;;4.93;1.63;;;;;;;;;;5051109;28;20032;-67
2022/11/11 08:50:14;;;;;;;9.52;2.00;;;;;;;;;;5029174;28;20029;-67
2022/11/11 08:52:44;;;;;;;4.43;1.58;;;;;;;;;;5051191;28;20123;-68
2022/11/11 08:55:09;;;;;;;5.15;1.70;;;;;;;;;;5050716;28;20021;-68
2022/11/11 08:57:34;;;;;;;4.73;1.77;;;;;;;;;;5050361;28;20368;-67
2022/11/11 09:00:00;;;;;;;4.97;1.47;;;;;;;;;;5051139;28;20729;-67
2022/11/11 09:02:25;;;;;;;2.60;1.40;;;;;;;;;;5050099;28;20749;-68
2022/11/11 09:04:50;;;;;;;4.63;1.50;;;;;;;;;;5046635;28;20018;-68
2022/11/11 09:07:16;;;;;;;5.40;1.60;;;;;;;;;;5040450;28;20017;-68
2022/11/11 09:09:41;;;;;;;5.57;1.50;;;;;;;;;;5050931;28;20279;-67
2022/11/11 09:12:06;;;;;;;2.23;1.03;;;;;;;;;;5050569;28;20059;-67
2022/11/11 09:14:31;;;;;;;4.22;1.70;;;;;;;;;;5050401;28;20266;-67
2022/11/11 09:16:57;;;;;;;3.42;1.27;;;;;;;;;;5049506;28;20021;-68
2022/11/11 09:19:22;;;;;;;5.72;1.45;;;;;;;;;;5050244;28;20027;-67
2022/11/11 09:21:49;;;;;;;4.40;2.15;;;;;;;;;;5075494;28;20032;-68
2022/11/11 09:24:14;;;;;;;2.67;1.40;;;;;;;;;;5042250;28;20463;-68
2022/11/11 09:26:39;;;;;;;2.97;1.33;;;;;;;;;;5045316;28;20027;-68
2022/11/11 09:29:05;;;;;;;2.38;0.98;;;;;;;;;;5050173;28;20071;-68
2022/11/11 09:31:30;;;;;;;3.60;1.38;;;;;;;;;;5054940;28;20021;-67
2022/11/11 09:33:55;;;;;;;4.07;1.40;;;;;;;;;;5052066;28;20456;-68
2022/11/11 09:36:20;;;;;;;6.13;1.52;;;;;;;;;;5051863;28;20017;-68
2022/11/11 09:38:46;;;;;;;4.88;1.10;;;;;;;;;;5052550;28;20074;-65
2022/11/11 09:41:16;;;;;;;12.50;1.50;;;;;;;;;;5053653;28;20020;-68
2022/11/11 09:43:58;;;;;;;3.20;1.40;;;;;;;;;;5053244;28;20381;-68
2022/11/11 09:46:39;;;;;;;9.48;1.20;;;;;;;;;;5019898;28;20176;-64
2022/11/11 09:49:17;;;;;;;4.53;1.40;;;;;;;;;;5030989;28;20013;-69
2022/11/11 09:51:50;;;;;;;2.63;1.20;;;;;;;;;;5015610;28;20025;-68
2022/11/11 09:54:17;;;;;;;2.72;1.08;;;;;;;;;;5013453;28;20017;-69
2022/11/11 09:56:43;;;;;;;5.20;1.60;;;;;;;;;;5011607;28;20865;-69
2022/11/11 09:59:37;;;;;;;6.15;1.33;;;;;;;;;;5015505;28;20130;-69
2022/11/11 10:02:03;;;;;;;1.83;0.77;;;;;;;;;;4995719;28;20864;-69
2022/11/11 10:04:40;;;;;;;5.72;1.40;;;;;;;;;;5011781;28;20029;-69
2022/11/11 10:07:10;;;;;;;3.67;1.42;;;;;;;;;;5009953;28;20036;-68
2022/11/11 10:09:50;;;;;;;5.93;1.30;;;;;;;;;;5010097;28;20037;-69
2022/11/11 10:12:16;;;;;;;2.97;1.10;;;;;;;;;;5012758;28;20120;-69
2022/11/11 10:14:48;;;;;;;3.10;1.40;;;;;;;;;;5011357;28;20036;-68
2022/11/11 10:17:22;;;;;;;3.25;1.30;;;;;;;;;;5004415;28;20459;-69
2022/11/11 10:19:47;;;;;;;;;;;;;;;;;;5011625;28;20993;-69
2022/11/11 10:22:20;;;;;;;2.60;0.80;;;;;;;;;;5011846;28;20781;-69
2022/11/11 10:24:52;;;;;;;3.35;1.23;;;;;;;;;;5014559;28;20040;-69
2022/11/11 10:27:19;;;;;;;2.65;1.08;;;;;;;;;;5014454;28;20094;-69
2022/11/11 10:29:45;;;;;;;7.22;1.45;;;;;;;;;;5014582;28;20021;-68
2022/11/11 10:32:21;;;;;;;2.63;1.23;;;;;;;;;;5005228;28;20021;-67
2022/11/11 10:34:46;;;;;;;3.15;1.48;;;;;;;;;;5008052;28;20020;-67
2022/11/11 10:37:20;;;;;;;2.80;1.20;;;;;;;;;;5007638;28;20028;-68
2022/11/11 10:40:10;;;;;;;2.40;0.93;;;;;;;;;;5006567;28;20010;-68
2022/11/11 10:42:37;;;;;;;4.03;1.52;;;;;;;;;;5008992;28;20159;-68
2022/11/11 10:45:07;;;;;;;4.70;1.50;;;;;;;;;;5013371;28;20130;-68
2022/11/11 10:47:44;;;;;;;2.88;1.23;;;;;;;;;;5017347;28;20029;-68
2022/11/11 10:50:12;;;;;;;6.18;2.00;;;;;;;;;;5015614;28;20024;-68
2022/11/11 10:52:43;;;;;;;6.60;1.42;;;;;;;;;;5016771;28;20021;-68
2022/11/11 10:55:10;;;;;;;2.75;1.08;;;;;;;;;;5011723;28;20029;-69
2022/11/11 10:57:47;;;;;;;5.20;1.10;;;;;;;;;;5009843;28;20013;-67
2022/11/11 11:00:14;;;;;;;5.38;1.40;;;;;;;;;;5008469;28;20023;-67
2022/11/11 11:02:44;;;;;;;2.90;1.27;;;;;;;;;;5003360;28;20013;-68
2022/11/11 11:05:09;;;;;;;2.88;1.33;;;;;;;;;;5017465;28;20071;-67
2022/11/11 11:07:40;;;;;;;2.50;1.07;;;;;;;;;;5017158;28;20017;-69
2022/11/11 11:10:12;;;;;;;2.90;1.55;;;;;;;;;;5017054;28;20298;-67
2022/11/11 11:12:48;;;;;;;3.60;1.52;;;;;;;;;;5017517;28;20075;-69
2022/11/11 11:15:16;;;;;;;2.95;1.27;;;;;;;;;;5016787;28;20060;-68
2022/11/11 11:17:48;;;;;;;5.47;1.63;;;;;;;;;;5015439;28;20016;-67
2022/11/11 11:20:15;;;;;;;3.35;1.30;;;;;;;;;;5012921;28;20915;-69
2022/11/11 11:22:51;;;;;;;2.42;0.93;;;;;;;;;;5046616;28;20025;-67
2022/11/11 11:25:17;;;;;;;3.08;1.60;;;;;;;;;;5039679;28;20382;-68
2022/11/11 11:27:43;;;;;;;2.30;1.23;;;;;;;;;;5051688;28;20037;-68
2022/11/11 11:30:09;;;;;;;3.42;1.35;;;;;;;;;;5051211;28;20039;-68
2022/11/11 11:32:34;;;;;;;3.53;1.60;;;;;;;;;;5037873;28;20583;-68
2022/11/11 11:35:00;;;;;;;3.55;1.48;;;;;;;;;;5033447;28;20091;-69
2022/11/11 11:37:26;;;;;;;3.75;1.23;;;;;;;;;;5039861;28;20025;-68
2022/11/11 11:40:12;;;;;;;3.25;1.33;;;;;;;;;;5037553;28;20021;-68
2022/11/11 11:42:38;;;;;;;7.43;2.03;;;;;;;;;;5037640;28;20045;-69
2022/11/11 11:45:15;;;;;;;3.90;1.67;;;;;;;;;;5039128;28;20112;-69
2022/11/11 11:48:03;;;;;;;3.85;1.50;;;;;;;;;;5040826;28;20017;-69
2022/11/11 11:50:30;;;;;;;7.00;1.70;;;;;;;;;;5036359;28;20151;-69
2022/11/11 11:52:55;;;;;;;2.45;1.00;;;;;;;;;;5041601;28;20017;-68
2022/11/11 11:55:22;;;;;;;2.53;1.13;;;;;;;;;;5041169;28;20036;-69
2022/11/11 11:57:51;;;;;;;3.03;1.58;;;;;;;;;;5035920;28;20422;-68
2022/11/11 12:00:19;;;;;;;2.63;1.20;;;;;;;;;;5034634;28;20021;-68
2022/11/11 12:02:53;;;;;;;2.97;1.02;;;;;;;;;;5044677;28;20053;-70
2022/11/11 12:05:24;;;;;;;5.35;1.23;;;;;;;;;;5040950;28;20144;-69
2022/11/11 12:07:49;;;;;;;6.72;1.63;;;;;;;;;;5042838;28;20493;-68
2022/11/11 12:10:17;;;;;;;2.77;1.47;;;;;;;;;;5039142;28;20034;-68
2022/11/11 12:12:57;;;;;;;3.45;1.17;;;;;;;;;;5039242;28;20074;-68
2022/11/11 12:15:41;;;;;;;2.42;1.17;;;;;;;;;;5046002;28;20036;-69
2022/11/11 12:18:23;;;;;;;7.30;1.40;;;;;;;;;;5032367;28;20479;-69
2022/11/11 12:20:48;;;;;;;3.05;1.38;;;;;;;;;;5036510;28;20033;-69
2022/11/11 12:23:37;;;;;;;4.40;1.60;;;;;;;;;;5036913;28;20020;-69
2022/11/11 12:26:14;;;;;;;2.97;1.38;;;;;;;;;;5040803;28;20033;-68
2022/11/11 12:28:48;;;;;;;3.38;1.30;;;;;;;;;;5043253;28;20415;-69
2022/11/11 12:31:13;;;;;;;4.07;1.88;;;;;;;;;;5035583;28;20036;-69
2022/11/11 12:33:54;;;;;;;4.77;1.77;;;;;;;;;;5035661;28;20033;-68
2022/11/11 12:36:27;;;;;;;3.50;1.63;;;;;;;;;;5045229;28;20358;-67
2022/11/11 12:38:53;;;;;;;2.72;1.30;;;;;;;;;;5042310;28;20566;-69
2022/11/11 12:41:18;;;;;;;4.60;1.27;;;;;;;;;;5038174;28;20104;-69
2022/11/11 12:43:43;;;;;;;3.33;1.27;;;;;;;;;;5040405;28;20335;-70
2022/11/11 12:46:14;;;;;;;4.33;1.63;;;;;;;;;;5050142;28;20749;-69
2022/11/11 12:48:48;;;;;;;4.03;1.48;;;;;;;;;;5044366;28;20394;-69
2022/11/11 12:51:16;;;;;;;5.30;1.35;;;;;;;;;;5037769;28;20447;-70
2022/11/11 12:53:46;;;;;;;3.30;1.58;;;;;;;;;;5043026;28;20017;-68
2022/11/11 12:56:21;;;;;;;3.80;1.70;;;;;;;;;;5037595;28;20048;-68
2022/11/11 12:59:11;;;;;;;3.22;1.63;;;;;;;;;;5017889;28;20029;-67
2022/11/11 13:01:55;;;;;;;3.38;1.67;;;;;;;;;;5028477;28;20033;-69
2022/11/11 13:04:20;;;;;;;2.83;1.40;;;;;;;;;;5047779;28;20025;-68
2022/11/11 13:06:55;;;;;;;9.80;1.37;;;;;;;;;;5043678;28;20044;-66
2022/11/11 13:09:20;;;;;;;;;;;;;;;;;;5038009;28;20260;-67
2022/11/11 13:12:04;;;;;;;2.63;1.08;;;;;;;;;;5045682;28;19912;-71
2022/11/11 13:14:36;;;;;;;3.65;1.10;;;;;;;;;;5039180;28;20124;-68
2022/11/11 13:17:04;;;;;;;18.67;1.80;;;;;;;;;;5051641;28;20025;-74
2022/11/11 13:19:41;;;;;;;5.82;1.63;;;;;;;;;;5047401;28;20024;-70
2022/11/11 13:22:06;;;;;;;3.28;1.27;;;;;;;;;;5033248;28;20024;-71
2022/11/11 13:24:34;;;;;;;2.40;1.35;;;;;;;;;;5054632;28;20100;-68
2022/11/11 13:27:05;;;;;;;5.35;1.23;;;;;;;;;;5040333;28;20029;-70
2022/11/11 13:29:33;;;;;;;3.55;1.35;;;;;;;;;;5036551;28;20053;-68
2022/11/11 13:32:00;;;;;;;4.90;1.58;;;;;;;;;;5041960;28;20112;-68
2022/11/11 13:34:26;;;;;;;2.33;1.05;;;;;;;;;;5031164;28;20108;-68
2022/11/11 13:36:53;;;;;;;2.33;1.15;;;;;;;;;;5042176;28;20499;-70
2022/11/11 13:39:24;;;;;;;3.75;1.55;;;;;;;;;;5029783;28;20386;-70
2022/11/11 13:41:50;;;;;;;4.95;1.35;;;;;;;;;;5034944;28;20074;-69
2022/11/11 13:44:37;;;;;;;3.47;1.58;;;;;;;;;;5037064;28;20519;-68
2022/11/11 13:47:04;;;;;;;5.13;1.50;;;;;;;;;;5037617;28;20025;-71
2022/11/11 13:49:29;;;;;;;7.80;1.90;;;;;;;;;;5052017;28;20036;-76
2022/11/11 13:51:58;;;;;;;3.63;1.30;;;;;;;;;;5050526;28;20021;-64
2022/11/11 13:54:47;;;;;;;2.67;1.33;;;;;;;;;;5048788;28;20271;-67
2022/11/11 13:57:12;;;;;;;3.40;1.60;;;;;;;;;;5051196;28;20025;-71
2022/11/11 13:59:39;;;;;;;5.57;1.50;;;;;;;;;;5046815;28;20025;-68
2022/11/11 14:02:19;;;;;;;3.25;1.70;;;;;;;;;;5044281;28;20143;-68
2022/11/11 14:05:07;;;;;;;3.08;1.38;;;;;;;;;;5047689;28;20096;-68
2022/11/11 14:07:47;;;;;;;3.17;1.30;;;;;;;;;;5049120;28;20059;-68
2022/11/11 14:10:15;;;;;;;3.35;1.45;;;;;;;;;;5039793;28;20029;-66
2022/11/11 14:13:04;;;;;;;1.98;1.02;;;;;;;;;;5048509;28;20121;-68
2022/11/11 14:15:29;;;;;;;4.00;1.60;;;;;;;;;;5019892;28;20095;-67
2022/11/11 14:17:54;;;;;;;3.03;1.10;;;;;;;;;;5048905;28;20017;-67
2022/11/11 14:20:31;;;;;;;2.70;1.38;;;;;;;;;;5055598;28;20370;-67
2022/11/11 14:23:15;;;;;;;5.55;1.17;;;;;;;;;;5053866;28;20486;-69
2022/11/11 14:25:40;;;;;;;4.40;1.55;;;;;;;;;;5054433;28;20096;-69
2022/11/11 14:28:24;;;;;;;4.60;1.43;;;;;;;;;;5051826;28;20140;-68
2022/11/11 14:30:50;;;;;;;2.78;1.15;;;;;;;;;;5053129;28;20337;-66
2022/11/11 14:33:54;;;;;;;8.07;1.60;;;;;;;;;;5053675;28;20028;-67
2022/11/11 14:36:38;;;;;;;4.10;1.80;;;;;;;;;;5010108;28;20096;-67
2022/11/11 14:39:03;;;;;;;2.42;1.13;;;;;;;;;;5012721;28;20026;-68
2022/11/11 14:41:44;;;;;;;3.57;1.80;;;;;;;;;;5043755;28;20042;-69
2022/11/11 14:44:27;;;;;;;2.50;1.20;;;;;;;;;;5051320;28;20291;-74
2022/11/11 14:47:05;;;;;;;6.03;1.25;;;;;;;;;;5048882;28;20009;-68
2022/11/11 14:49:59;;;;;;;8.10;1.65;;;;;;;;;;5037782;28;20028;-66
2022/11/11 14:52:31;;;;;;;3.65;1.58;;;;;;;;;;5042970;28;20033;-69
2022/11/11 14:55:20;;;;;;;3.25;1.55;;;;;;;;;;5044981;28;20055;-67
2022/11/11 14:57:46;;;;;;;2.33;1.38;;;;;;;;;;5037876;28;20028;-67
2022/11/11 15:00:16;;;;;;;9.85;1.73;;;;;;;;;;5035685;28;20026;-67
2022/11/11 15:03:01;;;;;;;3.33;1.38;;;;;;;;;;5044147;28;20079;-68
2022/11/11 15:05:41;;;;;;;4.03;1.80;;;;;;;;;;5039138;28;20076;-70
2022/11/11 15:08:13;;;;;;;6.65;1.45;;;;;;;;;;5052560;28;20028;-70
2022/11/11 15:10:38;;;;;;;3.85;1.25;;;;;;;;;;5051728;28;20034;-67
2022/11/11 15:13:22;;;;;;;4.10;1.50;;;;;;;;;;5052134;28;20013;-67
2022/11/11 15:15:47;;;;;;;4.63;1.45;;;;;;;;;;5051693;28;20355;-67
2022/11/11 15:18:13;;;;;;;3.85;1.50;;;;;;;;;;5051711;28;20029;-71
2022/11/11 15:20:53;;;;;;;2.65;1.20;;;;;;;;;;5053910;28;20103;-66
2022/11/11 15:23:25;;;;;;;2.65;1.02;;;;;;;;;;5013769;28;20149;-67
2022/11/11 15:25:50;;;;;;;2.58;1.23;;;;;;;;;;5016730;28;20435;-67
2022/11/11 15:28:38;;;;;;;4.30;1.77;;;;;;;;;;5029291;28;20537;-67
2022/11/11 15:31:11;;;;;;;3.35;1.70;;;;;;;;;;5002084;28;20414;-68
2022/11/11 15:33:36;;;;;;;3.28;1.38;;;;;;;;;;5003326;28;20021;-68
2022/11/11 15:36:09;;;;;;;9.00;1.58;;;;;;;;;;5013885;28;20802;-69
2022/11/11 15:38:35;;;;;;;4.65;1.67;;;;;;;;;;5008595;28;20056;-68
2022/11/11 15:41:00;;;;;;;4.18;1.38;;;;;;;;;;5013116;28;20818;-70
2022/11/11 15:43:27;;;;;;;3.25;1.70;;;;;;;;;;5013337;28;20853;-66
2022/11/11 15:45:53;;;;;;;4.30;1.45;;;;;;;;;;5013776;28;20798;-67
2022/11/11 15:48:39;;;;;;;4.40;1.30;;;;;;;;;;5014339;28;20124;-68
2022/11/11 15:51:34;;;;;;;3.20;1.65;;;;;;;;;;5013277;28;20096;-67
2022/11/11 15:54:10;;;;;;;4.32;2.03;;;;;;;;;;4996695;28;20159;-73
2022/11/11 15:56:37;;;;;;;4.38;1.95;;;;;;;;;;5010315;28;20033;-67
2022/11/11 15:59:21;;;;;;;3.83;1.75;;;;;;;;;;5012342;28;20129;-67
2022/11/11 16:01:46;;;;;;;5.17;2.87;;;;;;;;;;5011752;28;20028;-68
2022/11/11 16:04:14;;;;;;;6.28;3.67;;;;;;;;;;5010158;28;20041;-67